createdAt,value
2023-04-17T00:01:17.453Z,65.04
2023-04-17T00:03:44.670Z,65.18
2023-04-17T00:06:13.975Z,65.25
2023-04-17T00:08:40.656Z,65.39
2023-04-17T00:11:08.858Z,65.33
2023-04-17T00:13:36.306Z,65.50
2023-04-17T00:16:03.145Z,65.58
2023-04-17T00:18:29.682Z,65.73
2023-04-17T00:20:56.559Z,65.56
2023-04-17T00:23:23.020Z,65.67
2023-04-17T00:25:49.453Z,65.71
2023-04-17T00:28:15.951Z,65.69
2023-04-17T00:30:42.287Z,65.50
2023-04-17T00:33:08.662Z,65.51
2023-04-17T00:35:35.028Z,65.48
2023-04-17T00:38:01.437Z,65.13
2023-04-17T00:40:27.856Z,65.20
2023-04-17T00:42:59.856Z,65.42
2023-04-17T00:45:26.362Z,65.38
2023-04-17T00:47:53.633Z,65.48
2023-04-17T00:50:20.048Z,65.42
2023-04-17T00:52:47.373Z,65.45
2023-04-17T00:55:14.986Z,65.56
2023-04-17T00:57:42.415Z,65.58
2023-04-17T01:00:10.222Z,65.58
2023-04-17T01:02:37.862Z,65.72
2023-04-17T01:05:04.831Z,65.74
2023-04-17T01:07:31.433Z,65.82
2023-04-17T01:09:58.993Z,65.75
2023-04-17T01:12:25.807Z,65.82
2023-04-17T01:14:53.587Z,66.03
2023-04-17T01:17:20.430Z,65.83
2023-04-17T01:19:47.656Z,65.94
2023-04-17T01:22:16.336Z,65.96
2023-04-17T01:24:42.932Z,66.03
2023-04-17T01:27:09.387Z,65.95
2023-04-17T01:29:35.863Z,65.89
2023-04-17T01:32:02.308Z,66.12
2023-04-17T01:34:28.846Z,66.14
2023-04-17T01:36:55.329Z,66.15
2023-04-17T01:39:21.732Z,66.17
2023-04-17T01:41:48.262Z,66.30
2023-04-17T01:44:14.771Z,66.30
2023-04-17T01:46:41.287Z,66.36
2023-04-17T01:49:07.854Z,66.38
2023-04-17T01:51:34.298Z,66.43
2023-04-17T01:54:00.741Z,66.37
2023-04-17T01:56:27.195Z,66.28
2023-04-17T01:58:54.219Z,66.31
2023-04-17T02:01:20.718Z,66.31
2023-04-17T02:03:47.299Z,66.44
2023-04-17T02:06:15.238Z,66.60
2023-04-17T02:08:41.924Z,66.49
2023-04-17T02:11:09.985Z,66.65
2023-04-17T02:13:36.504Z,66.75
2023-04-17T02:16:03.016Z,66.60
2023-04-17T02:18:29.512Z,66.51
2023-04-17T02:20:55.912Z,66.61
2023-04-17T02:23:22.358Z,66.64
2023-04-17T02:25:48.732Z,66.29
2023-04-17T02:28:15.614Z,66.66
2023-04-17T02:30:42.078Z,66.64
2023-04-17T02:33:08.826Z,66.76
2023-04-17T02:35:35.346Z,66.76
2023-04-17T02:38:01.954Z,66.78
2023-04-17T02:40:28.309Z,66.50
2023-04-17T02:42:54.629Z,66.72
2023-04-17T02:45:21.056Z,66.72
2023-04-17T02:47:48.762Z,66.73
2023-04-17T02:50:15.425Z,66.74
2023-04-17T02:52:41.801Z,66.72
2023-04-17T02:55:09.558Z,66.63
2023-04-17T02:57:36.005Z,66.80
2023-04-17T03:00:05.070Z,66.67
2023-04-17T03:02:32.004Z,66.81
2023-04-17T03:05:02.012Z,66.73
2023-04-17T03:07:28.516Z,66.73
2023-04-17T03:09:57.417Z,66.64
2023-04-17T03:12:23.813Z,66.82
2023-04-17T03:14:50.905Z,66.92
2023-04-17T03:17:18.254Z,67.03
2023-04-17T03:19:44.709Z,66.83
2023-04-17T03:22:13.303Z,66.87
2023-04-17T03:24:41.175Z,66.83
2023-04-17T03:27:07.616Z,66.99
2023-04-17T03:29:34.047Z,67.01
2023-04-17T03:32:00.558Z,66.89
2023-04-17T03:34:28.227Z,67.04
2023-04-17T03:36:54.687Z,67.14
2023-04-17T03:39:21.352Z,67.09
2023-04-17T03:41:47.737Z,67.00
2023-04-17T03:44:14.167Z,67.19
2023-04-17T03:46:40.567Z,67.02
2023-04-17T03:49:06.891Z,67.03
2023-04-17T03:51:33.225Z,67.19
2023-04-17T03:53:59.771Z,67.02
2023-04-17T03:56:26.121Z,66.99
2023-04-17T03:58:52.534Z,66.97
2023-04-17T04:01:19.246Z,66.98
2023-04-17T04:03:45.861Z,66.99
2023-04-17T04:06:12.436Z,67.15
2023-04-17T04:08:38.833Z,67.22
2023-04-17T04:11:05.404Z,67.18
2023-04-17T04:13:31.745Z,67.21
2023-04-17T04:15:58.172Z,67.21
2023-04-17T04:18:24.555Z,67.35
2023-04-17T04:20:50.980Z,67.25
2023-04-17T04:23:17.326Z,67.44
2023-04-17T04:25:43.711Z,67.52
2023-04-17T04:28:10.453Z,67.40
2023-04-17T04:30:38.623Z,67.60
2023-04-17T04:33:05.693Z,67.71
2023-04-17T04:38:29.918Z,67.52
2023-04-17T04:41:06.105Z,67.67
2023-04-17T04:43:33.643Z,67.52
2023-04-17T04:46:00.446Z,67.80
2023-04-17T04:48:27.551Z,67.79
2023-04-17T04:50:54.575Z,67.95
2023-04-17T04:53:21.215Z,67.96
2023-04-17T04:55:47.662Z,67.84
2023-04-17T04:58:14.280Z,67.84
2023-04-17T05:00:40.841Z,67.97
2023-04-17T05:03:07.898Z,68.17
2023-04-17T05:05:35.898Z,68.10
2023-04-17T05:08:02.878Z,68.19
2023-04-17T05:10:29.387Z,68.19
2023-04-17T05:12:56.164Z,68.35
2023-04-17T05:15:22.730Z,68.35
2023-04-17T05:17:49.418Z,68.27
2023-04-17T05:20:16.253Z,68.27
2023-04-17T05:22:42.844Z,68.40
2023-04-17T05:25:09.566Z,68.41
2023-04-17T05:27:36.249Z,68.48
2023-04-17T05:30:02.992Z,68.45
2023-04-17T05:32:31.309Z,68.36
2023-04-17T05:34:57.950Z,68.66
2023-04-17T05:37:24.474Z,68.75
2023-04-17T05:39:50.976Z,68.49
2023-04-17T05:42:17.807Z,68.61
2023-04-17T05:44:44.331Z,68.49
2023-04-17T05:47:10.683Z,68.39
2023-04-17T05:49:37.108Z,68.80
2023-04-17T05:52:03.848Z,68.62
2023-04-17T05:54:30.387Z,68.74
2023-04-17T05:56:57.183Z,68.79
2023-04-17T05:59:23.731Z,68.71
2023-04-17T06:01:51.086Z,68.69
2023-04-17T06:04:18.674Z,68.70
2023-04-17T06:06:47.860Z,68.80
2023-04-17T06:09:14.705Z,68.73
2023-04-17T06:11:41.479Z,68.73
2023-04-17T06:14:08.087Z,68.74
2023-04-17T06:16:34.613Z,68.75
2023-04-17T06:19:01.165Z,68.82
2023-04-17T06:21:27.898Z,69.00
2023-04-17T06:23:54.466Z,68.86
2023-04-17T06:26:21.418Z,69.09
2023-04-17T06:28:48.069Z,68.96
2023-04-17T06:31:14.755Z,68.89
2023-04-17T06:33:41.386Z,68.88
2023-04-17T06:36:08.062Z,69.00
2023-04-17T06:38:34.659Z,68.92
2023-04-17T06:41:01.197Z,69.06
2023-04-17T06:43:27.666Z,68.96
2023-04-17T06:45:54.287Z,68.96
2023-04-17T06:48:21.055Z,68.93
2023-04-17T06:50:47.691Z,68.39
2023-04-17T06:53:20.104Z,68.54
2023-04-17T06:55:46.543Z,68.63
2023-04-17T06:58:13.430Z,68.64
2023-04-17T07:00:39.923Z,68.77
2023-04-17T07:03:06.748Z,68.71
2023-04-17T07:05:33.366Z,68.40
2023-04-17T07:07:59.858Z,68.25
2023-04-17T07:10:26.369Z,68.29
2023-04-17T07:12:52.936Z,68.07
2023-04-17T07:15:19.599Z,68.03
2023-04-17T07:17:46.373Z,68.01
2023-04-17T07:20:12.983Z,67.89
2023-04-17T07:22:39.978Z,67.93
2023-04-17T07:25:07.432Z,68.03
2023-04-17T07:27:34.088Z,68.04
2023-04-17T07:30:00.614Z,68.17
2023-04-17T07:32:28.101Z,67.91
2023-04-17T07:34:57.716Z,68.04
2023-04-17T07:37:24.314Z,68.00
2023-04-17T07:39:50.981Z,67.87
2023-04-17T07:42:17.584Z,67.93
2023-04-17T07:44:44.274Z,67.44
2023-04-17T07:47:11.103Z,67.45
2023-04-17T07:49:39.693Z,67.24
2023-04-17T07:52:06.349Z,67.32
2023-04-17T07:54:33.120Z,67.05
2023-04-17T07:57:03.454Z,67.24
2023-04-17T07:59:30.708Z,67.06
2023-04-17T08:01:57.711Z,66.97
2023-04-17T08:04:26.097Z,67.02
2023-04-17T08:06:52.876Z,66.65
2023-04-17T08:09:21.221Z,66.11
2023-04-17T08:11:56.874Z,66.11
2023-04-17T08:14:24.440Z,65.97
2023-04-17T08:16:51.581Z,65.62
2023-04-17T08:19:18.141Z,65.45
2023-04-17T08:21:50.158Z,64.78
2023-04-17T08:24:19.791Z,65.34
2023-04-17T08:26:47.330Z,65.07
2023-04-17T08:29:14.234Z,64.68
2023-04-17T08:31:41.265Z,64.55
2023-04-17T08:34:14.273Z,64.38
2023-04-17T08:36:42.699Z,64.05
2023-04-17T08:39:14.786Z,64.29
2023-04-17T08:41:54.986Z,62.99
2023-04-17T08:44:21.756Z,64.38
2023-04-17T08:46:49.745Z,64.06
2023-04-17T08:49:16.827Z,63.92
2023-04-17T08:51:43.451Z,63.88
2023-04-17T08:54:10.149Z,63.65
2023-04-17T08:56:54.433Z,61.61
2023-04-17T08:59:22.257Z,63.04
2023-04-17T09:02:06.782Z,60.40
2023-04-17T09:04:41.896Z,60.77
2023-04-17T09:07:13.528Z,61.76
2023-04-17T09:09:56.550Z,59.42
2023-04-17T09:12:24.974Z,60.96
2023-04-17T09:14:52.179Z,60.91
2023-04-17T09:17:20.308Z,60.66
2023-04-17T09:20:13.247Z,59.13
2023-04-17T09:22:41.056Z,60.30
2023-04-17T09:25:21.436Z,58.01
2023-04-17T09:27:48.038Z,59.37
2023-04-17T09:30:15.077Z,58.92
2023-04-17T09:32:41.796Z,58.10
2023-04-17T09:35:09.033Z,57.40
2023-04-17T09:37:55.642Z,55.81
2023-04-17T09:40:25.102Z,56.23
2023-04-17T09:42:54.661Z,54.74
2023-04-17T09:45:22.349Z,56.28
2023-04-17T09:47:48.938Z,56.39
2023-04-17T09:50:22.067Z,54.87
2023-04-17T09:52:52.470Z,54.47
2023-04-17T09:55:23.693Z,55.81
2023-04-17T09:57:54.793Z,55.11
2023-04-17T10:00:23.777Z,55.58
2023-04-17T10:02:54.143Z,55.80
2023-04-17T10:05:29.164Z,54.79
2023-04-17T10:07:56.550Z,56.22
2023-04-17T10:10:31.350Z,55.74
2023-04-17T10:13:01.205Z,55.31
2023-04-17T10:15:29.031Z,56.01
2023-04-17T10:17:58.738Z,55.96
2023-04-17T10:20:25.269Z,55.90
2023-04-17T10:22:56.719Z,55.57
2023-04-17T10:25:27.955Z,54.28
2023-04-17T10:27:54.673Z,55.16
2023-04-17T10:30:26.346Z,55.39
2023-04-17T10:33:21.894Z,54.62
2023-04-17T10:35:51.943Z,55.54
2023-04-17T10:38:39.049Z,54.17
2023-04-17T10:41:09.376Z,54.05
2023-04-17T10:43:40.526Z,54.41
2023-04-17T10:46:14.711Z,53.58
2023-04-17T10:48:50.602Z,52.24
2023-04-17T10:51:23.540Z,51.73
2023-04-17T10:53:51.670Z,53.71
2023-04-17T10:56:24.313Z,51.96
2023-04-17T10:59:00.695Z,51.81
2023-04-17T11:01:49.112Z,52.52
2023-04-17T11:04:23.572Z,51.33
2023-04-17T11:06:52.701Z,54.07
2023-04-17T11:09:27.825Z,52.29
2023-04-17T11:11:54.848Z,52.90
2023-04-17T11:14:23.321Z,51.25
2023-04-17T11:16:51.787Z,51.53
2023-04-17T11:19:23.185Z,48.46
2023-04-17T11:21:52.088Z,49.77
2023-04-17T11:24:29.619Z,46.68
2023-04-17T11:26:59.813Z,48.40
2023-04-17T11:29:27.684Z,48.66
2023-04-17T11:31:56.204Z,47.42
2023-04-17T11:34:24.888Z,47.41
2023-04-17T11:36:57.215Z,45.76
2023-04-17T11:39:25.582Z,45.72
2023-04-17T11:41:52.770Z,43.58
2023-04-17T11:44:23.585Z,41.19
2023-04-17T11:46:51.737Z,40.45
2023-04-17T11:49:39.027Z,40.04
2023-04-17T11:52:05.957Z,41.23
2023-04-17T11:54:37.211Z,40.12
2023-04-17T11:57:06.104Z,42.43
2023-04-17T11:59:34.184Z,43.36
2023-04-17T12:02:01.987Z,44.07
2023-04-17T12:04:30.105Z,43.13
2023-04-17T12:06:59.176Z,41.55
2023-04-17T12:09:31.306Z,40.54
2023-04-17T12:11:58.624Z,40.07
2023-04-17T12:14:26.447Z,40.18
2023-04-17T12:16:53.304Z,40.31
2023-04-17T12:19:19.880Z,40.25
2023-04-17T12:21:49.147Z,41.29
2023-04-17T12:24:18.162Z,41.22
2023-04-17T12:26:49.323Z,41.25
2023-04-17T12:29:16.659Z,41.01
2023-04-17T12:31:44.561Z,40.53
2023-04-17T12:34:11.309Z,40.45
2023-04-17T12:36:38.298Z,39.99
2023-04-17T12:39:04.726Z,39.93
2023-04-17T12:41:31.829Z,41.13
2023-04-17T12:44:01.606Z,41.49
2023-04-17T12:46:28.351Z,41.17
2023-04-17T12:48:58.367Z,41.39
2023-04-17T12:51:27.800Z,41.35
2023-04-17T12:53:55.188Z,40.48
2023-04-17T12:56:21.688Z,39.38
2023-04-17T12:58:48.150Z,37.66
2023-04-17T13:01:14.535Z,36.06
2023-04-17T13:03:41.410Z,35.54
2023-04-17T13:06:08.031Z,36.16
2023-04-17T13:08:34.486Z,37.13
2023-04-17T13:11:03.523Z,37.41
2023-04-17T13:13:29.943Z,36.71
2023-04-17T13:15:56.392Z,36.72
2023-04-17T13:18:22.855Z,36.54
2023-04-17T13:20:49.450Z,36.97
2023-04-17T13:23:15.876Z,36.72
2023-04-17T13:25:42.357Z,37.23
2023-04-17T13:28:08.859Z,37.06
2023-04-17T13:30:37.021Z,36.84
2023-04-17T13:33:03.833Z,36.07
2023-04-17T13:35:30.399Z,35.46
2023-04-17T13:38:00.775Z,33.61
2023-04-17T13:40:27.370Z,32.71
2023-04-17T13:42:54.500Z,32.75
2023-04-17T13:45:21.059Z,32.74
2023-04-17T13:47:47.701Z,32.87
2023-04-17T13:50:14.276Z,33.14
2023-04-17T13:52:40.697Z,32.50
2023-04-17T13:55:11.667Z,32.12
2023-04-17T13:57:38.244Z,32.85
2023-04-17T14:00:05.144Z,33.08
2023-04-17T14:02:31.875Z,33.63
2023-04-17T14:04:58.680Z,35.40
2023-04-17T14:07:27.263Z,37.02
2023-04-17T14:09:53.726Z,37.59
2023-04-17T14:12:21.680Z,37.29
2023-04-17T14:14:48.369Z,36.30
2023-04-17T14:17:14.991Z,35.87
2023-04-17T14:19:41.519Z,35.68
2023-04-17T14:22:08.150Z,35.65
2023-04-17T14:24:34.540Z,35.53
2023-04-17T14:27:02.111Z,35.20
2023-04-17T14:29:31.598Z,34.45
2023-04-17T14:31:58.141Z,34.34
2023-04-17T14:34:24.844Z,33.81
2023-04-17T14:36:51.702Z,33.65
2023-04-17T14:39:19.612Z,33.49
2023-04-17T14:41:46.189Z,32.24
2023-04-17T14:44:13.101Z,31.96
2023-04-17T14:46:39.993Z,31.45
2023-04-17T14:49:06.560Z,31.22
2023-04-17T14:51:33.009Z,31.13
2023-04-17T14:54:02.499Z,30.42
2023-04-17T14:56:28.953Z,30.95
2023-04-17T14:58:55.406Z,29.42
2023-04-17T15:01:21.938Z,29.57
2023-04-17T15:03:49.176Z,28.72
2023-04-17T15:06:16.609Z,28.12
2023-04-17T15:08:43.245Z,28.39
2023-04-17T15:11:09.759Z,28.41
2023-04-17T15:13:36.304Z,29.02
2023-04-17T15:16:03.393Z,30.20
2023-04-17T15:18:29.885Z,31.37
2023-04-17T15:20:56.402Z,32.26
2023-04-17T15:23:23.021Z,32.95
2023-04-17T15:25:49.500Z,33.05
2023-04-17T15:28:16.008Z,33.21
2023-04-17T15:30:42.662Z,33.26
2023-04-17T15:33:10.227Z,32.75
2023-04-17T15:35:37.387Z,32.85
2023-04-17T15:38:05.180Z,32.62
2023-04-17T15:40:31.654Z,32.31
2023-04-17T15:42:58.244Z,31.77
2023-04-17T15:45:25.779Z,31.46
2023-04-17T15:47:53.523Z,31.29
2023-04-17T15:50:21.070Z,30.89
2023-04-17T15:52:47.981Z,31.16
2023-04-17T15:55:14.992Z,31.42
2023-04-17T15:57:43.074Z,31.35
2023-04-17T16:00:10.431Z,31.50
2023-04-17T16:02:37.183Z,31.22
2023-04-17T16:05:04.257Z,31.21
2023-04-17T16:07:31.545Z,31.04
2023-04-17T16:09:58.271Z,30.98
2023-04-17T16:12:24.707Z,30.85
2023-04-17T16:14:51.244Z,31.00
2023-04-17T16:17:17.801Z,30.71
2023-04-17T16:19:44.197Z,31.02
2023-04-17T16:22:10.631Z,30.71
2023-04-17T16:24:37.044Z,31.21
2023-04-17T16:27:04.111Z,31.68
2023-04-17T16:29:30.664Z,31.67
2023-04-17T16:31:57.345Z,32.27
2023-04-17T16:34:23.800Z,33.03
2023-04-17T16:36:50.261Z,32.81
2023-04-17T16:39:16.824Z,33.26
2023-04-17T16:41:43.672Z,33.01
2023-04-17T16:44:10.398Z,33.39
2023-04-17T16:46:52.149Z,34.13
2023-04-17T16:49:23.617Z,34.18
2023-04-17T16:51:50.356Z,35.03
2023-04-17T16:54:18.751Z,35.19
2023-04-17T16:56:46.754Z,35.60
2023-04-17T16:59:13.683Z,35.83
2023-04-17T17:01:40.434Z,36.10
2023-04-17T17:04:07.202Z,36.40
2023-04-17T17:06:33.946Z,36.48
2023-04-17T17:09:00.724Z,36.19
2023-04-17T17:11:27.244Z,36.64
2023-04-17T17:13:53.819Z,37.03
2023-04-17T17:16:23.270Z,37.15
2023-04-17T17:18:49.836Z,37.50
2023-04-17T17:21:16.520Z,37.83
2023-04-17T17:23:43.035Z,37.83
2023-04-17T17:26:09.670Z,37.97
2023-04-17T17:28:36.566Z,38.24
2023-04-17T17:31:07.431Z,38.23
2023-04-17T17:33:35.157Z,38.43
2023-04-17T17:36:02.881Z,38.82
2023-04-17T17:38:30.806Z,38.90
2023-04-17T17:40:57.484Z,38.73
2023-04-17T17:43:24.519Z,38.66
2023-04-17T17:45:53.519Z,39.08
2023-04-17T17:48:20.513Z,38.99
2023-04-17T17:50:47.971Z,38.85
2023-04-17T17:53:17.525Z,39.15
2023-04-17T17:55:53.854Z,38.77
2023-04-17T17:58:21.761Z,39.60
2023-04-17T18:00:49.586Z,39.18
2023-04-17T18:03:17.265Z,39.67
2023-04-17T18:05:45.002Z,40.06
2023-04-17T18:08:11.632Z,40.07
2023-04-17T18:10:38.948Z,40.21
2023-04-17T18:13:06.099Z,40.29
2023-04-17T18:15:32.802Z,40.41
2023-04-17T18:17:59.510Z,40.65
2023-04-17T18:20:26.189Z,40.69
2023-04-17T18:22:52.779Z,41.03
2023-04-17T18:25:19.462Z,40.95
2023-04-17T18:27:45.963Z,41.27
2023-04-17T18:30:13.016Z,41.15
2023-04-17T18:32:39.554Z,41.12
2023-04-17T18:35:06.615Z,40.88
2023-04-17T18:37:33.237Z,40.39
2023-04-17T18:39:59.792Z,40.10
2023-04-17T18:42:26.248Z,40.10
2023-04-17T18:44:52.710Z,39.82
2023-04-17T18:47:19.231Z,39.85
2023-04-17T18:49:45.783Z,39.82
2023-04-17T18:52:12.356Z,39.99
2023-04-17T18:54:38.918Z,39.93
2023-04-17T18:57:05.398Z,39.85
2023-04-17T18:59:31.969Z,40.03
2023-04-17T19:01:58.513Z,40.01
2023-04-17T19:04:25.069Z,39.84
2023-04-17T19:06:51.628Z,39.62
2023-04-17T19:09:18.179Z,39.74
2023-04-17T19:11:44.751Z,39.71
2023-04-17T19:14:11.538Z,39.71
2023-04-17T19:16:38.442Z,39.69
2023-04-17T19:19:05.730Z,39.61
2023-04-17T19:21:32.851Z,39.67
2023-04-17T19:23:59.531Z,39.76
2023-04-17T19:26:26.095Z,39.84
2023-04-17T19:28:52.674Z,39.64
2023-04-17T19:31:19.284Z,39.73
2023-04-17T19:33:45.796Z,39.78
2023-04-17T19:36:12.270Z,39.89
2023-04-17T19:38:38.824Z,39.88
2023-04-17T19:41:23.550Z,39.47
2023-04-17T19:43:51.495Z,39.79
2023-04-17T19:46:19.437Z,39.91
2023-04-17T19:48:47.048Z,39.74
2023-04-17T19:51:14.876Z,39.65
2023-04-17T19:53:43.823Z,39.62
2023-04-17T19:56:10.911Z,39.57
2023-04-17T19:58:38.413Z,39.56
2023-04-17T20:01:05.184Z,39.54
2023-04-17T20:03:32.691Z,39.81
2023-04-17T20:05:59.821Z,39.59
2023-04-17T20:08:26.700Z,39.73
2023-04-17T20:10:53.774Z,39.70
2023-04-17T20:13:20.368Z,39.71
2023-04-17T20:15:46.992Z,39.93
2023-04-17T20:18:13.665Z,39.85
2023-04-17T20:20:40.379Z,39.78
2023-04-17T20:23:07.072Z,39.87
2023-04-17T20:25:33.599Z,40.03
2023-04-17T20:28:02.838Z,40.01
2023-04-17T20:30:29.634Z,40.12
2023-04-17T20:32:56.696Z,40.16
2023-04-17T20:35:24.703Z,40.35
2023-04-17T20:37:52.147Z,40.46
2023-04-17T20:40:19.698Z,40.42
2023-04-17T20:42:47.470Z,40.67
2023-04-17T20:45:14.310Z,40.73
2023-04-17T20:47:56.054Z,40.54
2023-04-17T20:50:23.705Z,40.79
2023-04-17T20:52:50.388Z,41.03
2023-04-17T20:55:18.763Z,41.01
2023-04-17T20:57:45.983Z,41.10
2023-04-17T21:00:13.037Z,41.53
2023-04-17T21:02:39.879Z,41.62
2023-04-17T21:05:07.713Z,41.84
2023-04-17T21:07:34.720Z,41.78
2023-04-17T21:10:02.016Z,41.96
2023-04-17T21:12:28.771Z,42.04
2023-04-17T21:14:55.274Z,42.27
2023-04-17T21:17:22.800Z,42.36
2023-04-17T21:19:49.485Z,42.63
2023-04-17T21:22:16.176Z,42.66
2023-04-17T21:24:42.868Z,42.76
2023-04-17T21:27:10.248Z,43.02
2023-04-17T21:29:36.896Z,43.10
2023-04-17T21:32:03.877Z,43.28
2023-04-17T21:34:30.556Z,43.37
2023-04-17T21:36:59.339Z,43.54
2023-04-17T21:39:25.962Z,43.44
2023-04-17T21:41:52.501Z,43.73
2023-04-17T21:44:19.134Z,43.86
2023-04-17T21:46:46.094Z,44.22
2023-04-17T21:49:13.014Z,44.16
2023-04-17T21:51:39.848Z,44.31
2023-04-17T21:54:06.494Z,44.58
2023-04-17T21:56:33.093Z,44.51
2023-04-17T21:58:59.638Z,44.66
2023-04-17T22:01:26.286Z,44.81
2023-04-17T22:03:53.120Z,44.89
2023-04-17T22:06:19.654Z,45.15
2023-04-17T22:08:46.353Z,45.28
2023-04-17T22:11:12.914Z,45.38
2023-04-17T22:13:39.484Z,45.84
2023-04-17T22:16:06.328Z,45.96
2023-04-17T22:18:32.893Z,46.01
2023-04-17T22:20:59.428Z,46.14
2023-04-17T22:23:26.026Z,46.40
2023-04-17T22:25:52.500Z,46.57
2023-04-17T22:28:19.197Z,46.72
2023-04-17T22:30:49.268Z,46.81
2023-04-17T22:33:15.780Z,47.08
2023-04-17T22:35:42.334Z,47.07
2023-04-17T22:38:08.877Z,47.33
2023-04-17T22:40:35.287Z,47.36
2023-04-17T22:43:01.606Z,47.41
2023-04-17T22:45:27.934Z,47.68
2023-04-17T22:47:54.287Z,47.69
2023-04-17T22:50:21.751Z,47.76
2023-04-17T22:52:48.115Z,47.60
2023-04-17T22:55:14.643Z,47.82
2023-04-17T22:57:41.016Z,47.99
2023-04-17T23:00:11.423Z,47.93
2023-04-17T23:02:37.920Z,47.99
2023-04-17T23:05:05.331Z,48.29
2023-04-17T23:07:32.379Z,48.23
2023-04-17T23:09:58.788Z,48.37
2023-04-17T23:12:25.184Z,48.40
2023-04-17T23:14:51.490Z,48.57
2023-04-17T23:17:17.877Z,48.69
2023-04-17T23:19:44.192Z,48.59
2023-04-17T23:22:10.728Z,48.72
2023-04-17T23:24:37.276Z,48.99
2023-04-17T23:27:03.728Z,49.05
2023-04-17T23:29:30.242Z,49.13
2023-04-17T23:31:56.536Z,49.21
2023-04-17T23:34:22.902Z,49.48
2023-04-17T23:36:49.208Z,49.53
2023-04-17T23:39:15.583Z,49.79
2023-04-17T23:41:42.739Z,49.90
2023-04-17T23:44:09.686Z,50.14
2023-04-17T23:46:36.859Z,50.18
2023-04-17T23:49:03.705Z,50.62
2023-04-17T23:51:30.325Z,50.54
2023-04-17T23:53:59.289Z,50.62
2023-04-17T23:56:26.009Z,50.64
2023-04-17T23:58:52.643Z,50.75
